Tripoli, Libya
Current Conditions -  °F | °C
As of 4:30 AM on Sunday 26 Oct 2014 (Local Time) from DTTJ Reporting Station
Clear Clear  
Wind Chill: 63°   Ceiling: Unl
Heat Index: 63°   Visibility: NA
Dew Point: 57°   Wind: 5mph
Humidity: 82%   Direction: 170°S
Pressure: 30.09"   Gusts: NA
Location:  32.87°N, 13.18°E
Report Text: DTTJ 260130Z AUTO 17004KT NCD 17/14 Q1019
Loading
Personal Weather Stations






























Interactive Weather Map
Tropical Storm Tracking
New forecast layout! Learn more

10-Day Weather Forecast

Advertisements
Track Severe Weather on mobile